Latest Weather Observations for Lady Elliot Island

IDQ60801

Issued at 9:32 am EST Friday 30 September 2016 (issued every 30 minutes, with the page automatically refreshed every 10 minutes)

About weather observations | Map of weather stations | Latest weather observations for QLD | Other Formats
Station Details ID: 039059 Name: LADY ELLIOT ISLAND Lat: -24.11 Lon: 152.72 Height: 3.6 m
Data from the previous 72 hours. | See also: Recent months at Lady Elliot Island
Date/Time
EST
Temp
°C
App
Temp
°C
Dew
Point
°C
Rel
Hum
%
Delta-T
°C
Wind Press
QNH
hPa
Press
MSL
hPa
Rain since
9am
mm
Dir  Spd
km/h
Gust
km/h
Spd
kts
Gust
kts
30/09:30am 24.1 25.0 22.0 88 1.4 NNW 20 33 11 18 1009.0 1009.0 0.0
30/09:00am 24.1 24.6 22.0 88 1.4 NNW 22 33 12 18 1009.0 1009.0 46.6
30/08:30am 23.6 23.1 21.5 88 1.4 NNW 26 37 14 20 1008.7 1008.7 46.6
30/08:00am 23.4 22.8 22.0 92 0.9 NNW 28 44 15 24 1008.5 1008.5 46.6
30/07:30am 22.5 23.2 21.5 94 0.7 NW 20 35 11 19 1008.5 1008.5 44.0
30/07:00am 21.4 21.1 20.4 94 0.6 NW 22 30 12 16 1008.3 1008.3 39.4
30/06:30am 20.1 17.8 19.3 95 0.5 WNW 30 50 16 27 1008.1 1008.1 33.8
30/06:28am 20.1 17.3 19.1 94 0.6 WNW 32 50 17 27 1008.5 1008.5 30.2
30/06:00am 22.0 20.6 20.5 91 1.0 NNW 28 43 15 23 1007.9 1007.9 6.8
30/05:30am 22.6 20.4 20.3 87 1.5 NNW 32 41 17 22 1007.3 1007.3 5.6
30/05:00am 22.8 20.8 21.1 90 1.1 NNW 33 44 18 24 1007.3 1007.3 5.6
30/04:30am 22.8 19.5 20.9 89 1.2 N 39 52 21 28 1006.5 1006.5 5.6
30/04:00am 22.9 20.5 21.0 89 1.2 N 35 48 19 26 1006.4 1006.4 5.6
30/03:30am 22.9 20.6 20.6 87 1.5 N 33 43 18 23 1006.7 1006.7 5.6
30/03:00am 22.7 20.3 20.4 87 1.5 N 33 44 18 24 1007.1 1007.1 5.6
30/02:30am 22.7 20.4 20.6 88 1.4 N 33 46 18 25 1007.5 1007.5 5.6
30/02:00am 22.6 22.1 20.7 89 1.2 N 24 35 13 19 1007.9 1007.9 5.6
30/01:30am 22.3 19.4 19.3 83 1.9 N 33 43 18 23 1008.0 1008.0 5.6
30/01:00am 22.8 20.4 20.0 84 1.8 N 32 46 17 25 1008.5 1008.5 5.6
30/12:30am 22.8 22.6 19.8 83 1.9 N 20 33 11 18 1009.0 1009.0 5.6
30/12:00am 22.4 20.4 18.4 78 2.5 N 26 41 14 22 1009.2 1009.2 5.6
 
Date/Time
EST
Temp
°C
App
Temp
°C
Dew
Point
°C
Rel
Hum
%
Delta-T
°C
Wind Press
QNH
hPa
Press
MSL
hPa
Rain since
9am
mm
Dir  Spd
km/h
Gust
km/h
Spd
kts
Gust
kts
29/11:30pm 22.8 22.3 20.0 84 1.8 N 22 41 12 22 1009.0 1009.0 5.6
29/11:00pm 22.2 22.1 19.9 87 1.5 NNE 20 32 11 17 1009.3 1009.3 5.6
29/10:30pm 21.2 20.8 18.9 87 1.4 NNE 19 32 10 17 1009.4 1009.4 5.6
29/10:00pm 21.3 20.6 18.7 85 1.6 N 20 33 11 18 1010.3 1010.3 4.0
29/09:30pm 21.9 21.8 19.5 86 1.5 N 19 32 10 17 1010.1 1010.1 1.8
29/09:00pm 21.6 21.6 18.0 80 2.2 N 15 24 8 13 1010.0 1010.0 0.8
29/08:48pm 21.7 20.6 17.3 76 2.7 N 19 30 10 16 1010.1 1010.1 0.6
29/08:30pm 22.1 21.4 19.6 86 1.6 NNE 22 33 12 18 1008.1 1008.1 0.6
29/08:00pm 22.0 22.3 19.5 86 1.6 NNE 17 26 9 14 1009.9 1009.9 0.4
29/07:30pm 22.0 22.6 19.5 86 1.6 NNE 15 26 8 14 1009.8 1009.8 0.4
29/07:00pm 22.4 22.8 19.8 85 1.7 NNE 17 24 9 13 1009.2 1009.2 0.2
29/06:30pm 22.6 23.7 19.6 83 1.9 NNE 13 22 7 12 1009.4 1009.4 0.0
29/06:00pm 22.6 23.9 19.4 82 2.0 N 11 17 6 9 1009.5 1009.5 0.0
29/05:30pm 22.5 24.2 19.3 82 2.0 N 9 15 5 8 1009.2 1009.2 0.0
29/05:00pm 22.7 23.1 19.1 80 2.3 N 15 20 8 11 1009.5 1009.5 0.0
29/04:30pm 22.7 22.2 19.1 80 2.3 N 20 28 11 15 1009.2 1009.2 0.0
29/04:00pm 22.8 22.3 19.0 79 2.4 N 20 28 11 15 1008.8 1008.8 0.0
29/03:30pm 22.9 22.3 18.9 78 2.5 N 20 28 11 15 1008.8 1008.8 0.0
29/03:00pm 23.3 22.6 18.6 75 3.0 NNW 20 26 11 14 1008.8 1008.8 0.0
29/02:30pm 23.4 22.2 18.3 73 3.2 NNW 22 30 12 16 1009.0 1009.0 0.0
29/02:00pm 23.7 23.1 18.4 72 3.3 NNW 19 26 10 14 1009.3 1009.3 0.0
29/01:30pm 24.1 22.9 18.3 70 3.7 NNW 22 30 12 16 1009.8 1009.8 0.0
29/01:00pm 24.4 22.6 17.9 67 4.1 NNW 24 33 13 18 1010.0 1010.0 0.0
29/12:30pm 24.6 22.5 18.1 67 4.1 NNW 26 33 14 18 1010.1 1010.1 0.0
29/12:00pm 25.0 22.1 18.0 65 4.4 NNW 30 39 16 21 1010.3 1010.3 0.0
29/11:30am 25.7 21.9 18.1 63 4.8 NNW 35 43 19 23 1010.4 1010.4 0.0
29/11:00am 24.8 21.5 18.0 66 4.3 NNW 32 41 17 22 1010.9 1010.9 0.0
29/10:30am 24.4 21.6 17.4 65 4.4 NNW 28 41 15 22 1011.6 1011.6 0.0
29/10:00am 25.6 22.6 17.8 62 4.9 N 30 39 16 21 1011.0 1011.0 0.0
29/09:30am 25.5 23.2 18.4 65 4.5 NNW 28 35 15 19 1011.5 1011.5 0.0
29/09:00am 25.2 22.5 18.4 66 4.3 N 30 35 16 19 1011.6 1011.6 0.0
29/08:30am 24.1 21.4 17.6 67 4.0 N 28 35 15 19 1011.4 1011.4 0.0
29/08:00am 23.6 21.4 16.9 66 4.1 N 24 32 13 17 1011.3 1011.3 0.0
29/07:30am 23.2 22.0 17.4 70 3.6 N 20 28 11 15 1011.1 1011.1 0.0
29/07:00am 23.1 21.4 17.1 69 3.7 N 22 32 12 17 1011.2 1011.2 0.0
29/06:30am 22.9 21.0 16.7 68 3.8 N 22 30 12 16 1010.9 1010.9 0.0
29/06:00am 22.4 19.8 16.0 67 3.9 N 24 30 13 16 1011.0 1011.0 0.0
29/05:30am 22.4 19.7 15.7 66 4.0 N 24 30 13 16 1010.9 1010.9 0.0
29/05:00am 22.2 20.2 15.5 66 4.0 N 20 28 11 15 1010.9 1010.9 0.0
29/04:30am 22.4 20.6 15.5 65 4.1 NNW 19 26 10 14 1011.3 1011.3 0.0
29/04:00am 22.2 20.6 15.1 64 4.2 NNW 17 22 9 12 1011.2 1011.2 0.0
29/03:30am 22.4 21.2 15.0 63 4.4 NW 15 22 8 12 1011.3 1011.3 0.0
29/03:00am 22.3 20.6 14.7 62 4.5 NW 17 28 9 15 1011.2 1011.2 0.0
29/02:30am 22.3 20.6 14.7 62 4.5 NW 17 26 9 14 1011.3 1011.3 0.0
29/02:00am 22.3 20.7 14.9 63 4.4 NNW 17 22 9 12 1011.1 1011.1 0.0
29/01:30am 22.2 21.0 15.1 64 4.2 NNW 15 22 8 12 1011.5 1011.5 0.0
29/01:00am 22.1 20.9 15.0 64 4.2 NNW 15 22 8 12 1011.9 1011.9 0.0
29/12:30am 22.2 21.4 15.1 64 4.2 NNW 13 20 7 11 1012.3 1012.3 0.0
29/12:00am 22.1 21.1 15.7 67 3.8 NW 15 22 8 12 1012.9 1012.9 0.0
 
Date/Time
EST
Temp
°C
App
Temp
°C
Dew
Point
°C
Rel
Hum
%
Delta-T
°C
Wind Press
QNH
hPa
Press
MSL
hPa
Rain since
9am
mm
Dir  Spd
km/h
Gust
km/h
Spd
kts
Gust
kts
28/11:30pm 21.9 20.4 15.3 66 3.9 NNW 17 22 9 12 1012.8 1012.8 0.0
28/11:00pm 22.2 20.6 15.1 64 4.2 NNW 17 26 9 14 1012.8 1012.8 0.0
28/10:30pm 22.3 20.6 14.7 62 4.5 NNW 17 26 9 14 1013.4 1013.4 0.0
28/10:00pm 22.0 19.4 14.9 64 4.2 NNW 22 28 12 15 1013.0 1013.0 0.0
28/09:30pm 22.1 19.5 15.0 64 4.2 NNW 22 30 12 16 1012.6 1012.6 0.0
28/09:00pm 22.1 20.1 15.0 64 4.2 NNW 19 26 10 14 1013.1 1013.1 0.0
28/08:30pm 21.8 20.1 14.7 64 4.2 N 17 22 9 12 1012.7 1012.7 0.0
28/08:00pm 21.9 20.2 14.8 64 4.2 NNW 17 24 9 13 1012.7 1012.7 0.0
28/07:30pm 22.3 19.9 14.4 61 4.6 NNW 20 30 11 16 1013.0 1013.0 0.0
28/07:00pm 22.0 19.8 14.9 64 4.2 NNW 20 28 11 15 1012.5 1012.5 0.0
28/06:30pm 22.0 19.6 14.4 62 4.5 NNW 20 26 11 14 1012.3 1012.3 0.0
28/06:00pm 21.9 19.3 13.3 58 4.9 N 19 26 10 14 1012.0 1012.0 0.0
28/05:30pm 22.2 19.9 14.6 62 4.5 N 20 26 11 14 1011.8 1011.8 0.0
28/05:00pm 23.0 20.3 13.5 55 5.5 N 20 26 11 14 1011.5 1011.5 0.0
28/04:30pm 23.5 21.4 12.5 50 6.3 N 15 22 8 12 1011.3 1011.3 0.0
28/04:00pm 24.0 22.7 13.8 53 6.0 N 13 20 7 11 1011.0 1011.0 0.0
28/03:30pm 24.8 23.7 14.3 52 6.2 N 13 19 7 10 1011.5 1011.5 0.0
28/03:00pm 24.7 23.0 12.6 47 7.0 NNW 13 17 7 9 1012.0 1012.0 0.0
28/02:30pm 25.1 23.4 11.3 42 7.8 NNW 11 13 6 7 1012.1 1012.1 0.0
28/02:00pm 25.4 23.8 11.6 42 7.8 WNW 11 13 6 7 1012.4 1012.4 0.0
28/01:30pm 25.0 23.0 11.6 43 7.6 WNW 13 15 7 8 1012.7 1012.7 0.0
28/01:00pm 25.0 23.1 11.9 44 7.5 WNW 13 17 7 9 1013.2 1013.2 0.0
28/12:30pm 25.3 23.6 12.5 45 7.4 W 13 17 7 9 1013.8 1013.8 0.0
28/12:00pm 24.7 23.3 13.3 49 6.6 SW 13 19 7 10 1014.1 1014.1 0.0
28/11:30am 24.3 22.0 11.6 45 7.2 WSW 15 20 8 11 1014.5 1014.5 0.0
28/11:00am 23.9 21.7 12.2 48 6.7 WSW 15 20 8 11 1014.9 1014.9 0.0
28/10:30am 24.6 22.3 11.9 45 7.2 SW 15 20 8 11 1015.4 1015.4 0.0
28/10:00am 24.4 22.9 13.0 49 6.6 WSW 13 19 7 10 1015.4 1015.4 0.0
28/09:30am 24.1 22.2 11.8 46 7.0 WSW 13 19 7 10 1015.6 1015.6 0.0
28/09:00am 24.3 22.9 12.3 47 6.9 WSW 11 17 6 9 1015.5 1015.5 0.0
28/08:30am 23.4 21.5 11.8 48 6.5 WSW 13 15 7 8 1015.6 1015.6 0.0
28/08:00am 23.6 22.3 12.6 50 6.3 SW 11 15 6 8 1015.0 1015.0 0.0
28/07:30am 22.9 21.6 12.5 52 5.9 SW 11 13 6 7 1014.9 1014.9 0.0
28/07:00am 22.2 21.2 12.2 53 5.6 SW 9 13 5 7 1014.6 1014.6 0.0
28/06:30am 21.4 20.4 12.3 56 5.1 WSW 9 13 5 7 1014.4 1014.4 0.0
28/06:00am 20.7 19.7 12.4 59 4.7 WSW 9 11 5 6 1014.2 1014.2 0.0
28/05:30am 20.1 19.0 12.1 60 4.5 WSW 9 13 5 7 1013.7 1013.7 0.0
28/05:00am 20.1 19.0 10.8 55 5.1 WSW 7 11 4 6 1013.5 1013.5 0.0
28/04:30am 20.5 19.2 11.2 55 5.1 WSW 9 13 5 7 1013.1 1013.1 0.0
28/04:00am 20.4 19.2 11.6 57 4.9 SW 9 15 5 8 1012.9 1012.9 0.0
28/03:30am 20.6 19.3 11.2 55 5.2 WSW 9 13 5 7 1012.8 1012.8 0.0
28/03:00am 20.4 19.2 11.6 57 4.9 SW 9 13 5 7 1012.5 1012.5 0.0
28/02:30am 19.9 19.4 13.8 68 3.5 WSW 9 13 5 7 1012.7 1012.7 0.0
28/02:00am 20.0 19.7 13.2 65 3.9 W 7 9 4 5 1012.7 1012.7 0.0
28/01:30am 20.3 20.0 13.3 64 4.0 WSW 7 11 4 6 1013.1 1013.1 0.0
28/01:00am 20.5 19.8 13.2 63 4.2 WSW 9 15 5 8 1013.4 1013.4 0.0
28/12:30am 20.5 20.2 13.2 63 4.2 WSW 7 13 4 7 1013.9 1013.9 0.0
28/12:00am 20.0 19.8 13.5 66 3.7 WSW 7 13 4 7 1014.2 1014.2 0.0
 
Date/Time
EST
Temp
°C
App
Temp
°C
Dew
Point
°C
Rel
Hum
%
Delta-T
°C
Wind Press
QNH
hPa
Press
MSL
hPa
Rain since
9am
mm
Dir  Spd
km/h
Gust
km/h
Spd
kts
Gust
kts
27/11:30pm 18.9 18.5 13.1 69 3.3 WSW 7 9 4 5 1014.2 1014.2 0.0
27/11:00pm 17.3 17.3 12.4 73 2.7 WSW 4 7 2 4 1014.2 1014.2 0.0
27/10:30pm 16.8 16.2 11.7 72 2.8 WSW 6 9 3 5 1014.4 1014.4 0.0
27/10:00pm 17.1 17.9 12.4 74 2.6 CALM 0 0 0 0 1014.6 1014.6 0.0
27/09:30pm 17.7 17.9 11.9 69 3.2 NW 2 6 1 3 1014.4 1014.4 0.0
27/09:00pm 18.4 17.9 12.2 67 3.4 NNW 6 7 3 4 1014.5 1014.5 0.0
27/08:30pm 19.8 19.5 12.8 64 3.9 NNE 6 7 3 4 1014.3 1014.3 0.0
27/08:00pm 17.6 17.8 11.9 69 3.1 NE 2 7 1 4 1014.3 1014.3 0.0
27/07:30pm 19.1 19.3 11.7 62 4.1 NE 2 7 1 4 1013.8 1013.8 0.0
27/07:00pm 20.9 20.1 11.8 56 5.1 ENE 7 11 4 6 1013.5 1013.5 0.0
27/06:30pm 20.7 19.4 11.1 54 5.3 E 9 9 5 5 1013.4 1013.4 0.0
27/06:00pm 21.5 19.6 10.6 50 6.0 E 11 17 6 9 1013.2 1013.2 0.0
27/05:30pm 21.8 20.0 9.3 45 6.7 E 9 13 5 7 1012.6 1012.6 0.0
27/05:00pm 21.9 20.9 11.0 50 6.0 E 7 9 4 5 1012.4 1012.4 0.0
27/04:30pm 22.0 20.2 10.8 49 6.2 E 11 15 6 8 1012.2 1012.2 0.0
27/04:00pm 22.1 20.3 12.1 53 5.6 ENE 13 19 7 10 1012.0 1012.0 0.0
27/03:30pm 22.3 20.8 12.0 52 5.8 ESE 11 15 6 8 1012.3 1012.3 0.0
27/03:00pm 22.5 21.2 11.3 49 6.2 SE 9 13 5 7 1012.2 1012.2 0.0
27/02:30pm 22.9 21.7 10.3 45 6.9 SE 7 9 4 5 1012.4 1012.4 0.0
27/02:00pm 23.5 21.9 10.2 43 7.3 SSW 9 13 5 7 1012.7 1012.7 0.0
27/01:30pm 24.2 21.7 9.8 40 7.9 SSW 13 20 7 11 1013.2 1013.2 0.0
27/01:00pm 24.5 21.7 11.5 44 7.3 SSW 17 24 9 13 1013.8 1013.8 0.0
27/12:30pm 24.4 21.8 12.0 46 7.1 SSW 17 22 9 12 1013.9 1013.9 0.0
27/12:00pm 24.0 21.2 11.3 45 7.1 SSW 17 22 9 12 1014.3 1014.3 0.0
27/11:30am 23.9 20.8 11.6 46 6.9 SSW 19 28 10 15 1015.1 1015.1 0.0
27/11:00am 23.2 20.2 11.9 49 6.4 SSW 19 26 10 14 1015.3 1015.3 0.0
27/10:30am 23.1 20.5 12.1 50 6.2 SSW 17 22 9 12 1015.4 1015.4 0.0
27/10:00am 23.3 20.4 12.9 52 6.0 SSW 20 28 11 15 1015.6 1015.6 0.0

Other Formats:

Comma delimited format used in spreadsheet applications
http://www.bom.gov.au/fwo/IDQ60801/IDQ60801.94388.axf

JavaScript Object Notation format (JSON) in row-major order
http://www.bom.gov.au/fwo/IDQ60801/IDQ60801.94388.json